createdAt,value
2018-11-26T00:00:36.134Z,22.67
2018-11-26T00:03:07.021Z,23.03
2018-11-26T00:05:34.754Z,22.37
2018-11-26T00:08:02.573Z,23.03
2018-11-26T00:10:42.182Z,23.40
2018-11-26T00:13:09.902Z,22.53
2018-11-26T00:15:37.741Z,24.27
2018-11-26T00:18:05.808Z,23.03
2018-11-26T00:20:33.531Z,20.97
2018-11-26T00:23:01.336Z,23.67
2018-11-26T00:25:29.075Z,21.53
2018-11-26T00:27:56.827Z,22.07
2018-11-26T00:30:24.545Z,22.53
2018-11-26T00:32:52.238Z,21.63
2018-11-26T00:35:20.025Z,21.87
2018-11-26T00:37:47.761Z,21.97
2018-11-26T00:40:15.460Z,21.73
2018-11-26T00:42:43.189Z,22.07
2018-11-26T00:45:11.902Z,23.30
2018-11-26T00:47:39.600Z,23.80
2018-11-26T00:50:08.678Z,23.07
2018-11-26T00:52:36.402Z,22.43
2018-11-26T00:55:04.631Z,22.77
2018-11-26T00:57:32.346Z,24.13
2018-11-26T01:00:00.097Z,23.03
2018-11-26T01:02:27.846Z,22.57
2018-11-26T01:04:55.590Z,23.27
2018-11-26T01:07:23.372Z,23.47
2018-11-26T01:09:51.137Z,23.77
2018-11-26T01:12:18.903Z,23.03
2018-11-26T01:14:46.628Z,24.17
2018-11-26T01:17:14.318Z,23.27
2018-11-26T01:19:42.048Z,23.00
2018-11-26T01:22:09.733Z,23.57
2018-11-26T01:24:37.554Z,23.07
2018-11-26T01:27:05.507Z,23.07
2018-11-26T01:29:33.234Z,22.03
2018-11-26T01:32:00.969Z,21.17
2018-11-26T01:34:28.704Z,22.07
2018-11-26T01:36:56.431Z,22.13
2018-11-26T01:39:24.141Z,22.30
2018-11-26T01:41:51.937Z,24.27
2018-11-26T01:44:19.705Z,22.03
2018-11-26T01:46:47.413Z,21.83
2018-11-26T01:49:15.165Z,22.63
2018-11-26T01:51:42.894Z,24.70
2018-11-26T01:54:10.604Z,23.50
2018-11-26T01:56:38.321Z,22.17
2018-11-26T01:59:06.125Z,20.77
2018-11-26T02:01:33.877Z,22.20
2018-11-26T02:04:01.680Z,21.73
2018-11-26T02:06:29.463Z,21.63
2018-11-26T02:08:57.175Z,21.37
2018-11-26T02:11:24.871Z,22.20
2018-11-26T02:13:52.603Z,22.03
2018-11-26T02:16:20.365Z,22.13
2018-11-26T02:18:48.132Z,22.40
2018-11-26T02:21:15.854Z,21.30
2018-11-26T02:23:43.577Z,21.67
2018-11-26T02:26:11.367Z,22.73
2018-11-26T02:28:39.116Z,21.97
2018-11-26T02:31:06.859Z,21.83
2018-11-26T02:33:34.581Z,22.97
2018-11-26T02:36:02.398Z,22.70
2018-11-26T02:38:30.136Z,22.30
2018-11-26T02:40:57.918Z,21.77
2018-11-26T02:43:25.651Z,20.67
2018-11-26T02:45:53.378Z,22.37
2018-11-26T02:48:21.133Z,21.47
2018-11-26T02:50:48.820Z,21.47
2018-11-26T02:53:16.797Z,22.07
2018-11-26T02:55:44.548Z,21.73
2018-11-26T02:58:12.286Z,21.40
2018-11-26T03:00:40.157Z,21.10
2018-11-26T03:03:07.917Z,22.30
2018-11-26T03:05:35.687Z,21.87
2018-11-26T03:08:03.449Z,21.47
2018-11-26T03:10:31.204Z,21.43
2018-11-26T03:12:58.934Z,21.13
2018-11-26T03:15:26.703Z,21.10
2018-11-26T03:17:54.468Z,21.87
2018-11-26T03:20:22.153Z,21.30
2018-11-26T03:22:49.901Z,20.93
2018-11-26T03:25:17.662Z,19.73
2018-11-26T03:27:45.418Z,19.67
2018-11-26T03:30:17.312Z,20.80
2018-11-26T03:32:45.045Z,21.40
2018-11-26T03:35:12.829Z,20.40
2018-11-26T03:37:40.562Z,19.17
2018-11-26T03:40:10.778Z,20.53
2018-11-26T03:42:38.565Z,19.87
2018-11-26T03:45:10.435Z,19.37
2018-11-26T03:47:38.181Z,20.10
2018-11-26T03:50:06.358Z,19.30
2018-11-26T03:52:34.202Z,19.30
2018-11-26T03:55:01.922Z,19.77
2018-11-26T03:57:29.711Z,19.47
2018-11-26T03:59:57.443Z,19.90
2018-11-26T04:02:25.175Z,18.77
2018-11-26T04:04:52.886Z,20.13
2018-11-26T04:07:20.567Z,18.90
2018-11-26T04:09:48.297Z,19.63
2018-11-26T04:12:16.043Z,18.73
2018-11-26T04:14:43.785Z,20.33
2018-11-26T04:17:11.522Z,20.00
2018-11-26T04:19:39.235Z,18.07
2018-11-26T04:22:06.920Z,17.60
2018-11-26T04:24:35.480Z,19.47
2018-11-26T04:27:03.170Z,18.23
2018-11-26T04:29:30.902Z,19.13
2018-11-26T04:31:58.638Z,18.67
2018-11-26T04:34:26.362Z,19.47
2018-11-26T04:36:54.069Z,18.47
2018-11-26T04:39:21.745Z,19.87
2018-11-26T04:41:49.512Z,18.03
2018-11-26T04:44:17.225Z,19.13
2018-11-26T04:46:44.941Z,19.33
2018-11-26T04:49:12.679Z,18.57
2018-11-26T04:51:40.417Z,18.20
2018-11-26T04:54:08.165Z,17.70
2018-11-26T04:56:35.881Z,18.10
2018-11-26T04:59:03.617Z,17.77
2018-11-26T05:01:31.343Z,17.57
2018-11-26T05:03:59.111Z,17.93
2018-11-26T05:06:26.795Z,18.20
2018-11-26T05:08:54.600Z,18.37
2018-11-26T05:11:22.319Z,18.00
2018-11-26T05:13:50.079Z,17.67
2018-11-26T05:16:17.837Z,18.70
2018-11-26T05:18:45.557Z,18.57
2018-11-26T05:21:13.339Z,17.87
2018-11-26T05:23:41.119Z,18.40
2018-11-26T05:26:08.888Z,18.17
2018-11-26T05:28:36.681Z,18.80
2018-11-26T05:31:04.707Z,18.70
2018-11-26T05:33:32.420Z,18.43
2018-11-26T05:36:00.173Z,18.23
2018-11-26T05:38:27.893Z,19.20
2018-11-26T05:40:55.639Z,19.60
2018-11-26T05:43:23.378Z,17.80
2018-11-26T05:45:51.088Z,20.00
2018-11-26T05:48:18.833Z,18.33
2018-11-26T05:50:46.523Z,18.30
2018-11-26T05:53:14.294Z,19.90
2018-11-26T05:55:42.080Z,19.33
2018-11-26T05:58:09.835Z,19.37
2018-11-26T06:00:37.677Z,19.33
2018-11-26T06:03:06.014Z,19.20
2018-11-26T06:05:33.774Z,19.30
2018-11-26T06:08:01.489Z,19.40
2018-11-26T06:10:29.234Z,19.50
2018-11-26T06:12:56.979Z,18.10
2018-11-26T06:15:24.664Z,18.67
2018-11-26T06:17:52.449Z,18.57
2018-11-26T06:20:20.261Z,19.77
2018-11-26T06:22:48.061Z,19.70
2018-11-26T06:25:17.179Z,19.00
2018-11-26T06:27:45.490Z,19.03
2018-11-26T06:30:14.354Z,19.17
2018-11-26T06:32:42.262Z,18.50
2018-11-26T06:35:12.435Z,17.27
2018-11-26T06:37:40.150Z,17.30
2018-11-26T06:40:08.986Z,17.80
2018-11-26T06:42:36.703Z,17.43
2018-11-26T06:45:06.540Z,17.37
2018-11-26T06:47:34.266Z,17.53
2018-11-26T06:50:01.982Z,18.73
2018-11-26T06:52:32.378Z,17.53
2018-11-26T06:55:00.183Z,17.07
2018-11-26T06:57:27.942Z,17.87
2018-11-26T06:59:55.658Z,17.43
2018-11-26T07:02:23.385Z,16.90
2018-11-26T07:04:51.192Z,16.93
2018-11-26T07:07:19.312Z,16.60
2018-11-26T07:09:47.116Z,17.00
2018-11-26T07:12:14.813Z,17.23
2018-11-26T07:14:42.561Z,17.33
2018-11-26T07:17:10.275Z,16.13
2018-11-26T07:19:37.991Z,15.90
2018-11-26T07:22:05.723Z,16.37
2018-11-26T07:24:34.425Z,15.53
2018-11-26T07:27:03.088Z,15.57
2018-11-26T07:29:30.814Z,15.77
2018-11-26T07:31:58.555Z,15.80
2018-11-26T07:34:26.286Z,14.77
2018-11-26T07:36:54.051Z,14.80
2018-11-26T07:39:21.839Z,14.63
2018-11-26T07:41:49.616Z,15.00
2018-11-26T07:44:17.355Z,14.93
2018-11-26T07:46:45.119Z,14.63
2018-11-26T07:49:12.913Z,14.90
2018-11-26T07:51:40.681Z,13.73
2018-11-26T07:54:08.403Z,14.60
2018-11-26T07:56:36.252Z,14.67
2018-11-26T07:59:04.170Z,14.00
2018-11-26T08:01:32.833Z,13.20
2018-11-26T08:04:00.675Z,13.87
2018-11-26T08:06:28.437Z,13.77
2018-11-26T08:08:56.185Z,14.40
2018-11-26T08:11:24.074Z,13.50
2018-11-26T08:13:51.829Z,13.63
2018-11-26T08:16:19.576Z,14.03
2018-11-26T08:18:47.361Z,14.03
2018-11-26T08:21:15.267Z,14.50
2018-11-26T08:23:43.102Z,14.27
2018-11-26T08:26:10.869Z,13.77
2018-11-26T08:28:38.653Z,13.90
2018-11-26T08:31:06.717Z,13.10
2018-11-26T08:33:34.508Z,14.67
2018-11-26T08:36:08.694Z,14.00
2018-11-26T08:38:42.293Z,14.80
2018-11-26T08:41:14.029Z,13.63
2018-11-26T08:43:44.638Z,14.33
2018-11-26T08:46:18.291Z,13.30
2018-11-26T08:48:52.582Z,13.40
2018-11-26T08:51:20.580Z,13.10
2018-11-26T08:53:48.420Z,13.50
2018-11-26T08:56:16.279Z,13.67
2018-11-26T08:58:44.044Z,13.53
2018-11-26T09:01:17.198Z,14.50
2018-11-26T09:03:48.027Z,13.97
2018-11-26T09:06:16.229Z,13.20
2018-11-26T09:08:44.001Z,12.67
2018-11-26T09:11:11.729Z,13.07
2018-11-26T09:13:39.519Z,13.80
2018-11-26T09:16:07.534Z,13.67
2018-11-26T09:18:35.282Z,13.77
2018-11-26T09:21:03.072Z,13.70
2018-11-26T09:23:30.852Z,14.60
2018-11-26T09:25:58.562Z,13.73
2018-11-26T09:28:26.346Z,14.37
2018-11-26T09:30:54.087Z,13.47
2018-11-26T09:33:21.844Z,15.37
2018-11-26T09:35:49.637Z,15.23
2018-11-26T09:38:17.451Z,14.23
2018-11-26T09:40:45.209Z,14.07
2018-11-26T09:43:12.974Z,14.50
2018-11-26T09:45:40.904Z,14.07
2018-11-26T09:48:08.735Z,14.97
2018-11-26T09:50:37.351Z,14.47
2018-11-26T09:53:05.437Z,14.90
2018-11-26T09:55:33.186Z,14.97
2018-11-26T09:58:01.771Z,15.50
2018-11-26T10:00:29.708Z,14.90
2018-11-26T10:02:57.495Z,15.60
2018-11-26T10:05:25.717Z,15.87
2018-11-26T10:07:53.526Z,15.37
2018-11-26T10:10:21.812Z,14.73
2018-11-26T10:12:49.607Z,15.57
2018-11-26T10:15:19.393Z,15.10
2018-11-26T10:17:47.594Z,15.97
2018-11-26T10:20:15.451Z,15.90
2018-11-26T10:22:43.751Z,15.03
2018-11-26T10:25:15.684Z,15.00
2018-11-26T10:27:43.523Z,15.63
2018-11-26T10:30:14.176Z,15.40
2018-11-26T10:32:42.298Z,14.07
2018-11-26T10:35:12.084Z,16.10
2018-11-26T10:37:39.947Z,14.97
2018-11-26T10:40:13.762Z,15.77
2018-11-26T10:42:41.524Z,15.97
2018-11-26T10:45:11.424Z,15.33
2018-11-26T10:47:39.141Z,16.40
2018-11-26T10:50:10.445Z,15.07
2018-11-26T10:52:38.313Z,14.17
2018-11-26T10:55:09.469Z,14.97
2018-11-26T10:57:37.146Z,15.43
2018-11-26T11:00:06.980Z,13.87
2018-11-26T11:02:40.182Z,14.07
2018-11-26T11:05:08.068Z,15.00
2018-11-26T11:07:35.808Z,15.20
2018-11-26T11:10:04.637Z,13.53
2018-11-26T11:12:33.105Z,13.60
2018-11-26T11:15:00.833Z,12.23
2018-11-26T11:17:28.607Z,13.33
2018-11-26T11:19:56.357Z,13.93
2018-11-26T11:22:24.064Z,13.40
2018-11-26T11:24:51.846Z,12.93
2018-11-26T11:27:19.632Z,12.67
2018-11-26T11:29:47.390Z,13.37
2018-11-26T11:32:15.106Z,12.20
2018-11-26T11:34:42.845Z,12.80
2018-11-26T11:37:10.588Z,12.63
2018-11-26T11:39:38.391Z,11.90
2018-11-26T11:42:06.179Z,13.07
2018-11-26T11:44:33.990Z,12.83
2018-11-26T11:47:01.797Z,13.83
2018-11-26T11:49:29.545Z,12.23
2018-11-26T11:51:57.307Z,12.37
2018-11-26T11:54:25.047Z,12.53
2018-11-26T11:56:52.954Z,13.13
2018-11-26T11:59:20.746Z,11.70
2018-11-26T12:01:48.688Z,11.67
2018-11-26T12:04:16.495Z,11.03
2018-11-26T12:06:44.318Z,12.03
2018-11-26T12:09:12.206Z,12.07
2018-11-26T12:11:41.013Z,11.80
2018-11-26T12:14:08.859Z,11.00
2018-11-26T12:16:36.716Z,11.03
2018-11-26T12:19:04.518Z,10.80
2018-11-26T12:21:32.280Z,11.30
2018-11-26T12:24:00.029Z,10.77
2018-11-26T12:26:27.779Z,10.80
2018-11-26T12:28:55.536Z,11.33
2018-11-26T12:31:23.335Z,12.23
2018-11-26T12:33:51.087Z,11.40
2018-11-26T12:36:18.822Z,11.27
2018-11-26T12:38:46.627Z,10.17
2018-11-26T12:41:14.424Z,10.33
2018-11-26T12:43:42.171Z,10.63
2018-11-26T12:46:09.942Z,10.97
2018-11-26T12:48:37.694Z,9.87
2018-11-26T12:51:05.650Z,10.57
2018-11-26T12:53:33.388Z,9.57
2018-11-26T12:56:01.162Z,10.00
2018-11-26T12:58:28.880Z,9.70
2018-11-26T13:00:56.642Z,10.20
2018-11-26T13:03:24.369Z,9.47
2018-11-26T13:05:52.104Z,9.67
2018-11-26T13:08:19.817Z,9.70
2018-11-26T13:10:47.554Z,9.57
2018-11-26T13:13:15.284Z,9.53
2018-11-26T13:15:43.165Z,9.87
2018-11-26T13:18:10.999Z,10.27
2018-11-26T13:20:38.794Z,9.60
2018-11-26T13:23:08.039Z,9.50
2018-11-26T13:25:41.556Z,9.83
2018-11-26T13:28:05.532Z,9.20
2018-11-26T13:30:37.592Z,9.03
2018-11-26T13:33:07.894Z,9.67
2018-11-26T13:35:35.749Z,9.57
2018-11-26T13:38:03.537Z,9.40
2018-11-26T13:40:31.308Z,9.40
2018-11-26T13:42:59.117Z,9.30
2018-11-26T13:45:28.939Z,8.83
2018-11-26T13:47:56.735Z,9.50
2018-11-26T13:50:27.499Z,9.47
2018-11-26T13:52:55.595Z,10.50
2018-11-26T13:55:23.597Z,8.67
2018-11-26T13:57:51.382Z,9.60
2018-11-26T14:00:19.370Z,9.53
2018-11-26T14:02:47.283Z,8.73
2018-11-26T14:05:17.088Z,8.67
2018-11-26T14:07:45.193Z,8.97
2018-11-26T14:10:16.241Z,9.03
2018-11-26T14:12:44.676Z,8.50
2018-11-26T14:15:15.075Z,8.47
2018-11-26T14:17:42.864Z,7.87
2018-11-26T14:20:14.232Z,8.77
2018-11-26T14:22:42.164Z,7.83
2018-11-26T14:25:18.107Z,8.07
2018-11-26T14:27:46.426Z,7.60
2018-11-26T14:30:16.674Z,8.20
2018-11-26T14:32:44.377Z,7.17
2018-11-26T14:35:12.233Z,7.73
2018-11-26T14:37:40.032Z,7.07
2018-11-26T14:40:11.378Z,6.67
2018-11-26T14:42:39.215Z,7.37
2018-11-26T14:45:09.455Z,6.77
2018-11-26T14:47:37.317Z,7.10
2018-11-26T14:50:07.721Z,7.00
2018-11-26T14:52:35.506Z,6.80
2018-11-26T14:55:03.357Z,6.97
2018-11-26T14:57:31.150Z,6.67
2018-11-26T14:59:58.874Z,6.37
2018-11-26T15:02:26.685Z,7.00
2018-11-26T15:04:54.436Z,6.40
2018-11-26T15:07:22.143Z,7.10
2018-11-26T15:09:49.911Z,6.30
2018-11-26T15:12:17.705Z,6.73
2018-11-26T15:14:45.431Z,6.97
2018-11-26T15:17:13.803Z,6.30
2018-11-26T15:19:41.625Z,6.30
2018-11-26T15:22:09.320Z,6.33
2018-11-26T15:24:37.101Z,5.93
2018-11-26T15:27:04.924Z,5.40
2018-11-26T15:29:32.754Z,5.23
2018-11-26T15:32:00.474Z,5.70
2018-11-26T15:34:28.241Z,5.60
2018-11-26T15:36:55.958Z,4.63
2018-11-26T15:39:23.681Z,4.97
2018-11-26T15:41:51.433Z,5.07
2018-11-26T15:44:19.283Z,4.97
2018-11-26T15:46:47.015Z,4.10
2018-11-26T15:49:14.732Z,4.40
2018-11-26T15:51:42.436Z,5.10
2018-11-26T15:54:10.231Z,4.53
2018-11-26T15:56:38.047Z,4.77
2018-11-26T15:59:05.856Z,4.50
2018-11-26T16:01:33.588Z,4.37
2018-11-26T16:04:01.286Z,4.80
2018-11-26T16:06:28.990Z,4.33
2018-11-26T16:08:56.822Z,4.47
2018-11-26T16:11:24.602Z,4.50
2018-11-26T16:13:52.364Z,4.10
2018-11-26T16:16:20.102Z,4.03
2018-11-26T16:18:47.839Z,4.20
2018-11-26T16:21:15.544Z,4.13
2018-11-26T16:23:43.315Z,4.03
2018-11-26T16:26:11.149Z,4.03
2018-11-26T16:28:38.936Z,3.70
2018-11-26T16:31:06.751Z,3.97
2018-11-26T16:33:34.486Z,4.40
2018-11-26T16:36:02.228Z,4.03
2018-11-26T16:38:30.548Z,4.17
2018-11-26T16:40:58.561Z,3.87
2018-11-26T16:43:26.386Z,3.60
2018-11-26T16:45:54.104Z,4.00
2018-11-26T16:48:21.831Z,4.07
2018-11-26T16:50:49.547Z,3.57
2018-11-26T16:53:19.372Z,3.87
2018-11-26T16:55:45.119Z,3.80
2018-11-26T16:58:12.881Z,3.20
2018-11-26T17:00:40.666Z,3.63
2018-11-26T17:03:08.504Z,3.70
2018-11-26T17:05:40.609Z,4.17
2018-11-26T17:08:12.572Z,3.50
2018-11-26T17:10:40.504Z,3.57
2018-11-26T17:13:08.593Z,3.80
2018-11-26T17:15:36.650Z,3.57
2018-11-26T17:18:05.169Z,4.40
2018-11-26T17:20:32.987Z,3.60
2018-11-26T17:23:01.062Z,3.80
2018-11-26T17:25:28.851Z,3.27
2018-11-26T17:27:57.491Z,3.53
2018-11-26T17:30:26.560Z,3.80
2018-11-26T17:32:57.523Z,3.77
2018-11-26T17:35:25.380Z,3.40
2018-11-26T17:37:53.337Z,3.60
2018-11-26T17:40:22.150Z,3.70
2018-11-26T17:42:50.296Z,3.20
2018-11-26T17:45:18.719Z,3.80
2018-11-26T17:47:50.096Z,3.57
2018-11-26T17:50:26.028Z,3.43
2018-11-26T17:52:54.524Z,3.73
2018-11-26T17:55:22.599Z,4.23
2018-11-26T17:57:50.485Z,4.20
2018-11-26T18:00:19.996Z,4.17
2018-11-26T18:02:47.894Z,3.80
2018-11-26T18:05:17.999Z,4.20
2018-11-26T18:07:47.229Z,3.90
2018-11-26T18:10:15.476Z,4.20
2018-11-26T18:12:43.319Z,4.43
2018-11-26T18:15:13.656Z,3.93
2018-11-26T18:17:41.573Z,4.10
2018-11-26T18:20:11.019Z,3.50
2018-11-26T18:22:38.759Z,3.90
2018-11-26T18:25:07.988Z,3.80
2018-11-26T18:27:35.939Z,4.20
2018-11-26T18:30:09.016Z,3.40
2018-11-26T18:32:36.892Z,3.80
2018-11-26T18:35:04.761Z,4.00
2018-11-26T18:37:32.488Z,3.73
2018-11-26T18:40:00.266Z,3.53
2018-11-26T18:42:28.038Z,3.57
2018-11-26T18:44:55.853Z,3.00
2018-11-26T18:47:23.604Z,3.43
2018-11-26T18:49:51.466Z,3.07
2018-11-26T18:52:19.229Z,2.93
2018-11-26T18:54:46.963Z,2.63
2018-11-26T18:57:14.728Z,3.00
2018-11-26T18:59:42.514Z,2.53
2018-11-26T19:02:10.307Z,2.70
2018-11-26T19:04:38.052Z,2.63
2018-11-26T19:07:05.998Z,2.40
2018-11-26T19:09:33.692Z,2.47
2018-11-26T19:12:04.120Z,1.90
2018-11-26T19:14:29.531Z,2.20
2018-11-26T19:16:57.738Z,2.27
2018-11-26T19:19:25.139Z,2.27
2018-11-26T19:21:52.888Z,2.20
2018-11-26T19:24:20.806Z,2.40
2018-11-26T19:26:48.562Z,2.13
2018-11-26T19:29:16.319Z,2.10
2018-11-26T19:31:44.079Z,2.30
2018-11-26T19:34:11.842Z,2.20
2018-11-26T19:36:39.723Z,2.33
2018-11-26T19:39:08.728Z,2.40
2018-11-26T19:41:36.929Z,3.00
2018-11-26T19:44:04.752Z,2.70
2018-11-26T19:46:32.589Z,2.50
2018-11-26T19:49:00.456Z,2.60
2018-11-26T19:51:28.297Z,2.83
2018-11-26T19:53:56.121Z,2.60
2018-11-26T19:56:23.854Z,3.17
2018-11-26T19:58:51.580Z,3.13
2018-11-26T20:01:19.324Z,3.70
2018-11-26T20:03:51.129Z,3.37
2018-11-26T20:06:20.620Z,3.50
2018-11-26T20:08:49.711Z,3.80
2018-11-26T20:11:17.468Z,3.97
2018-11-26T20:13:45.509Z,3.53
2018-11-26T20:16:18.009Z,4.37
2018-11-26T20:18:45.771Z,4.00
2018-11-26T20:21:13.579Z,3.53
2018-11-26T20:23:41.327Z,4.03
2018-11-26T20:26:09.099Z,3.90
2018-11-26T20:28:36.882Z,3.23
2018-11-26T20:31:05.344Z,3.80
2018-11-26T20:33:33.106Z,4.07
2018-11-26T20:36:00.886Z,4.20
2018-11-26T20:38:28.624Z,3.90
2018-11-26T20:40:56.379Z,4.00
2018-11-26T20:43:24.142Z,4.27
2018-11-26T20:45:51.959Z,3.67
2018-11-26T20:48:19.755Z,4.13
2018-11-26T20:50:49.743Z,4.60
2018-11-26T20:53:18.200Z,4.00
2018-11-26T20:55:45.958Z,4.20
2018-11-26T20:58:13.712Z,3.83
2018-11-26T21:00:41.992Z,4.03
2018-11-26T21:03:10.464Z,3.80
2018-11-26T21:05:39.077Z,3.90
2018-11-26T21:08:06.853Z,4.37
2018-11-26T21:10:34.707Z,3.60
2018-11-26T21:13:02.472Z,3.77
2018-11-26T21:15:30.280Z,3.57
2018-11-26T21:17:58.567Z,2.90
2018-11-26T21:20:31.168Z,3.17
2018-11-26T21:22:59.003Z,3.27
2018-11-26T21:25:26.800Z,3.40
2018-11-26T21:27:54.564Z,3.23
2018-11-26T21:30:22.359Z,3.00
2018-11-26T21:32:50.070Z,3.03
2018-11-26T21:35:18.679Z,3.30
2018-11-26T21:37:48.869Z,3.37
2018-11-26T21:40:20.392Z,2.97
2018-11-26T21:42:47.475Z,3.00
2018-11-26T21:45:25.563Z,2.73
2018-11-26T21:47:53.366Z,3.13
2018-11-26T21:50:21.084Z,3.03
2018-11-26T21:52:48.843Z,2.57
2018-11-26T21:55:17.697Z,2.97
2018-11-26T21:57:46.073Z,2.87
2018-11-26T22:00:21.753Z,2.80
2018-11-26T22:02:49.687Z,2.80
2018-11-26T22:05:17.472Z,3.07
2018-11-26T22:07:45.242Z,2.87
2018-11-26T22:10:15.044Z,3.03
2018-11-26T22:12:44.028Z,2.90
2018-11-26T22:15:12.743Z,2.67
2018-11-26T22:17:40.812Z,3.40
2018-11-26T22:20:13.869Z,2.97
2018-11-26T22:22:41.595Z,2.67
2018-11-26T22:25:10.614Z,3.40
2018-11-26T22:27:38.465Z,2.87
2018-11-26T22:30:14.775Z,3.20
2018-11-26T22:32:42.595Z,2.50
2018-11-26T22:35:10.776Z,2.90
2018-11-26T22:37:38.575Z,2.57
2018-11-26T22:40:15.528Z,2.93
2018-11-26T22:42:43.359Z,2.90
2018-11-26T22:45:12.482Z,2.70
2018-11-26T22:47:40.364Z,2.97
2018-11-26T22:50:13.954Z,2.77
2018-11-26T22:52:41.841Z,2.80
2018-11-26T22:55:10.982Z,2.90
2018-11-26T22:57:38.746Z,2.90
2018-11-26T23:00:21.189Z,2.83
2018-11-26T23:02:49.091Z,2.93
2018-11-26T23:05:16.842Z,2.77
2018-11-26T23:07:44.572Z,3.00
2018-11-26T23:10:12.386Z,2.43
2018-11-26T23:12:40.096Z,2.93
2018-11-26T23:15:10.278Z,2.87
2018-11-26T23:17:38.004Z,2.80
2018-11-26T23:20:08.406Z,3.27
2018-11-26T23:22:36.154Z,3.00
2018-11-26T23:25:04.261Z,3.07
2018-11-26T23:27:32.024Z,2.73
2018-11-26T23:29:59.824Z,2.70
2018-11-26T23:32:27.605Z,3.30
2018-11-26T23:34:55.396Z,3.13
2018-11-26T23:37:23.199Z,2.90
2018-11-26T23:39:51.016Z,3.20
2018-11-26T23:42:18.871Z,3.17
2018-11-26T23:44:46.583Z,2.80
2018-11-26T23:47:14.395Z,3.10
2018-11-26T23:49:42.108Z,4.07
2018-11-26T23:52:09.906Z,3.50
2018-11-26T23:54:37.692Z,3.33
2018-11-26T23:57:05.742Z,3.63
2018-11-26T23:59:33.504Z,4.13
